MFK weather

Matsu Beigan Airport
Beigan Island, Lienchiang County, Taiwan

Public forecast

Using degrees Celsius for public forecast. Weather courtesy of forecast.io.

Closest aviation weather report (METAR) to Matsu Beigan Airport

Closest report is Fuzhou Changle International Airport, 25.2 nm (46.8 km) SW. Retrieved 2020/08/05 03:00 UTC (2 hours ago):

ZSFZ 050300Z 16005MPS 9999 SCT026 32/25 Q1011 NOSIG

Aviation forecast (TAF) for Matsu Beigan Airport

Forecast is more than 12 hours old.

Retrieved 2020/01/15 06:00 UTC (7 months ago):

TAF RCMT 150500Z 1506/1524 04018KT 3500 HZ SCT007 BKN011 BKN030 TEMPO 1506/1512 6000 NSW SCT008 BKN017 BKN035 BECMG 1518/1520 03008KT TEMPO 1521/1524 7000 NSW FEW008 BKN032